Time;durP1;ratioP1;P1;durP2;ratioP2;P2;SDS_P1;SDS_P2;PMS_P1;PMS_P2;Temp;Humidity;BMP_temperature;BMP_pressure;BME280_temperature;BME280_humidity;BME280_pressure;Samples;Min_cycle;Max_cycle;Signal;HPM_P1;HPM_P2
2021/06/11 00:00:24;;;;;;;;;2.00;2.00;;;;;24.70;47.33;101518.75;5099588;27;45319;-51
2021/06/11 00:02:49;;;;;;;;;3.00;3.00;;;;;24.67;47.40;101517.13;5098893;27;47336;-46
2021/06/11 00:05:15;;;;;;;;;2.75;2.75;;;;;24.64;47.49;101520.03;5098923;27;45473;-48
2021/06/11 00:07:40;;;;;;;;;2.25;2.25;;;;;24.63;47.16;101521.00;5099301;27;45803;-48
2021/06/11 00:10:09;;;;;;;;;1.00;1.00;;;;;24.58;47.27;101517.75;5097603;27;45363;-48
2021/06/11 00:12:35;;;;;;;;;2.00;2.00;;;;;24.54;47.54;101521.66;5099490;27;48346;-49
2021/06/11 00:15:00;;;;;;;;;3.50;3.50;;;;;24.52;47.52;101524.47;5094995;27;45688;-49
2021/06/11 00:17:26;;;;;;;;;3.00;3.00;;;;;24.51;47.85;101513.69;5099117;27;45413;-46
2021/06/11 00:19:51;;;;;;;;;3.00;2.25;;;;;24.51;47.88;101516.41;5097369;27;45314;-47
2021/06/11 00:22:17;;;;;;;;;1.75;1.75;;;;;24.48;47.79;101511.19;5096787;27;47684;-48
2021/06/11 00:24:42;;;;;;;;;1.25;1.25;;;;;24.46;47.92;101515.88;5098623;27;45397;-49
2021/06/11 00:27:08;;;;;;;;;2.00;2.00;;;;;24.45;47.83;101512.28;5098691;27;45392;-50
2021/06/11 00:29:33;;;;;;;;;3.00;2.00;;;;;24.45;48.06;101522.25;5098880;27;45290;-48
2021/06/11 00:31:59;;;;;;;;;1.00;1.00;;;;;24.44;47.74;101515.97;5098645;27;48293;-48
2021/06/11 00:34:25;;;;;;;;;2.25;2.00;;;;;24.37;47.44;101520.06;5103694;27;45413;-48
2021/06/11 00:36:50;;;;;;;;;1.25;1.25;;;;;24.26;47.88;101517.16;5097103;27;45421;-48
2021/06/11 00:39:15;;;;;;;;;2.00;2.00;;;;;24.21;48.04;101516.59;5098666;27;45371;-46
2021/06/11 00:41:41;;;;;;;;;2.75;2.75;;;;;24.21;47.94;101519.31;5097493;27;48274;-47
2021/06/11 00:44:06;;;;;;;;;2.25;1.50;;;;;24.21;48.26;101512.03;5100116;27;45662;-49
2021/06/11 00:46:32;;;;;;;;;3.75;2.00;;;;;24.20;48.19;101514.84;5091557;27;45452;-49
2021/06/11 00:48:58;;;;;;;;;1.25;1.25;;;;;24.18;48.12;101520.38;5080309;27;45549;-49
2021/06/11 00:51:24;;;;;;;;;1.75;1.75;;;;;24.15;48.23;101519.72;5092430;27;46795;-47
2021/06/11 00:53:50;;;;;;;;;0.75;0.75;;;;;24.13;48.09;101518.94;5100010;27;45589;-45
2021/06/11 00:56:16;;;;;;;;;2.00;2.00;;;;;24.12;48.14;101519.91;5082861;27;45741;-48
2021/06/11 00:58:42;;;;;;;;;1.00;1.00;;;;;24.05;48.20;101516.75;5100046;27;45469;-47
2021/06/11 01:01:07;;;;;;;;;1.50;1.00;;;;;24.01;48.23;101526.03;5100612;27;47450;-48
2021/06/11 01:03:32;;;;;;;;;0.67;0.67;;;;;23.99;47.96;101526.13;5101450;27;45378;-48
2021/06/11 01:05:58;;;;;;;;;2.75;2.50;;;;;23.95;47.94;101519.16;5102284;27;45283;-47
2021/06/11 01:08:24;;;;;;;;;0.33;0.33;;;;;23.94;48.44;101514.72;5099851;27;45415;-49
2021/06/11 01:10:50;;;;;;;;;2.33;1.00;;;;;23.94;48.54;101514.72;5090716;27;48403;-47
2021/06/11 01:13:18;;;;;;;;;2.00;2.00;;;;;23.92;48.60;101502.25;5101386;27;46023;-46
2021/06/11 01:15:43;;;;;;;;;1.50;1.50;;;;;23.90;48.18;101513.19;5094417;27;45400;-49
2021/06/11 01:18:10;;;;;;;;;2.00;1.00;;;;;23.91;48.52;101508.63;5097354;27;45537;-49
2021/06/11 01:20:36;;;;;;;;;2.00;1.00;;;;;23.90;48.67;101507.75;5092257;27;47199;-50
2021/06/11 01:23:29;;;;;;;;;1.00;1.00;;;;;23.91;48.58;101505.94;5083366;27;45328;-51
2021/06/11 01:26:07;;;;;;;;;1.75;1.75;;;;;23.91;48.30;101505.94;5081101;27;45392;-50
2021/06/11 01:28:32;;;;;;;;;0.67;0.67;;;;;23.89;48.29;101508.75;5091153;27;45314;-46
2021/06/11 01:30:59;;;;;;;;;1.25;1.25;;;;;23.80;48.68;101498.47;5084744;27;48265;-49
2021/06/11 01:33:29;;;;;;;;;1.00;1.00;;;;;23.77;48.20;101509.53;5081192;27;46091;-50
2021/06/11 01:36:01;;;;;;;;;1.00;1.00;;;;;23.71;48.64;101513.50;5097237;27;45637;-47
2021/06/11 01:38:38;;;;;;;;;2.00;2.00;;;;;23.68;48.61;101508.28;5101109;27;45368;-46
2021/06/11 01:41:06;;;;;;;;;1.75;1.75;;;;;23.68;49.03;101505.56;5098281;27;47273;-46
2021/06/11 01:43:33;;;;;;;;;1.00;1.00;;;;;23.66;48.83;101498.50;5080980;27;45273;-49
2021/06/11 01:45:59;;;;;;;;;1.00;1.00;;;;;23.62;48.97;101496.94;5091367;27;45316;-47
2021/06/11 01:48:26;;;;;;;;;1.25;1.25;;;;;23.58;49.16;101498.13;5096720;27;45460;-46
2021/06/11 01:50:53;;;;;;;;;1.25;1.25;;;;;23.53;48.74;101500.22;5094287;27;48077;-46
2021/06/11 01:53:21;;;;;;;;;1.75;1.00;;;;;23.52;49.02;101502.06;5093834;27;45782;-47
2021/06/11 01:55:48;;;;;;;;;1.25;1.25;;;;;23.49;49.09;101497.69;5101289;27;45290;-49
2021/06/11 01:58:16;;;;;;;;;1.00;1.00;;;;;23.47;49.33;101494.22;5101231;27;45473;-48
2021/06/11 02:00:43;;;;;;;;;0.50;0.50;;;;;23.48;49.65;101490.53;5111782;27;47234;-47
2021/06/11 02:03:09;;;;;;;;;1.25;1.25;;;;;23.47;49.10;101488.78;5121161;27;46073;-47
2021/06/11 02:05:36;;;;;;;;;1.00;1.00;;;;;23.46;49.39;101492.47;5119234;27;45708;-46
2021/06/11 02:08:03;;;;;;;;;0.67;0.67;;;;;23.47;49.34;101491.50;5121605;27;45606;-48
2021/06/11 02:10:30;;;;;;;;;1.00;1.00;;;;;23.47;49.23;101493.34;5109196;27;48465;-46
2021/06/11 02:12:56;;;;;;;;;1.00;1.00;;;;;23.47;49.35;101483.38;5086428;27;45297;-50
2021/06/11 02:15:23;;;;;;;;;1.00;1.00;;;;;23.49;49.53;101485.97;5096108;27;45415;-49
2021/06/11 02:17:50;;;;;;;;;1.00;1.00;;;;;23.48;49.30;101487.81;5095601;27;45664;-50
2021/06/11 02:20:20;;;;;;;;;2.00;1.25;;;;;23.50;49.23;101479.59;5093892;27;48341;-47
2021/06/11 02:22:46;;;;;;;;;0.50;0.50;;;;;23.51;49.51;101483.19;5105398;27;45367;-45
2021/06/11 02:25:14;;;;;;;;;3.00;2.00;;;;;23.50;49.26;101476.88;5080121;27;45490;-52
2021/06/11 02:27:41;;;;;;;;;4.00;2.00;;;;;23.48;49.10;101481.53;5079254;27;45365;-47
2021/06/11 02:30:09;;;;;;;;;1.00;1.00;;;;;23.50;49.43;101479.59;5080232;27;45275;-48
2021/06/11 02:32:35;;;;;;;;;0.33;0.33;;;;;23.51;49.25;101481.34;5080016;27;45231;-48
2021/06/11 02:35:05;;;;;;;;;2.75;2.75;;;;;23.51;49.20;101480.50;5080268;27;45366;-48
2021/06/11 02:37:30;;;;;;;;;1.33;0.33;;;;;23.49;49.11;101478.72;5089915;27;45366;-48
2021/06/11 02:39:56;;;;;;;;;1.00;1.00;;;;;23.46;49.55;101484.34;5099216;27;48329;-47
2021/06/11 02:42:23;;;;;;;;;1.00;1.00;;;;;23.43;49.47;101475.53;5100322;27;45996;-48
2021/06/11 02:44:52;;;;;;;;;1.00;1.00;;;;;23.39;49.46;101480.28;5100835;27;45438;-47
2021/06/11 02:47:28;;;;;;;;;1.00;1.00;;;;;23.39;49.80;101479.44;5098202;27;45500;-45
2021/06/11 02:49:58;;;;;;;;;2.00;2.00;;;;;23.38;49.81;101469.56;5103918;27;47504;-49
2021/06/11 02:52:27;;;;;;;;;2.00;2.00;;;;;23.39;49.30;101471.31;5093425;27;46169;-49
2021/06/11 02:54:57;;;;;;;;;3.00;1.75;;;;;23.38;49.74;101464.16;5093959;27;45376;-50
2021/06/11 02:57:32;;;;;;;;;2.00;2.00;;;;;23.37;49.47;101467.78;5100053;27;45322;-50
2021/06/11 03:00:09;;;;;;;;;2.00;2.00;;;;;23.37;49.76;101467.78;5099979;27;47420;-49
2021/06/11 03:02:46;;;;;;;;;1.00;1.00;;;;;23.36;50.03;101460.63;5096401;27;45390;-47
2021/06/11 03:05:16;;;;;;;;;2.00;1.00;;;;;23.35;49.68;101467.88;5093626;27;45551;-48
2021/06/11 03:07:45;;;;;;;;;1.00;1.00;;;;;23.33;49.65;101466.25;5100685;27;45374;-48
2021/06/11 03:10:12;;;;;;;;;3.00;1.33;;;;;23.32;49.63;101469.94;5097559;27;48468;-46
2021/06/11 03:12:40;;;;;;;;;1.33;1.33;;;;;23.28;49.94;101468.41;5085536;27;45564;-47
2021/06/11 03:15:07;;;;;;;;;1.33;1.33;;;;;23.28;50.01;101460.28;5086045;27;45471;-46
2021/06/11 03:17:54;;;;;;;;;1.67;1.67;;;;;23.28;49.87;101468.41;5100478;27;45503;-47
2021/06/11 03:20:24;;;;;;;;;1.67;1.67;;;;;23.28;49.94;101457.56;5099789;27;47606;-50
2021/06/11 03:22:54;;;;;;;;;1.33;1.00;;;;;23.29;50.12;101459.31;5085685;27;45346;-51
2021/06/11 03:25:30;;;;;;;;;1.67;1.67;;;;;23.29;50.09;101457.47;5079601;27;45744;-47
2021/06/11 03:28:01;;;;;;;;;0.67;0.67;;;;;23.29;49.83;101457.47;5090934;27;45381;-47
2021/06/11 03:30:29;;;;;;;;;1.00;1.00;;;;;23.29;49.66;101448.47;5095189;27;47321;-50
2021/06/11 03:33:06;;;;;;;;;1.33;1.33;;;;;23.28;50.00;101458.44;5095071;27;45388;-47
2021/06/11 03:35:35;;;;;;;;;0.33;0.33;;;;;23.27;50.05;101456.69;5091939;27;45401;-46
2021/06/11 03:38:06;;;;;;;;;0.67;0.67;;;;;23.25;50.08;101457.72;5098511;27;45713;-45
2021/06/11 03:40:35;;;;;;;;;0.67;0.67;;;;;23.23;50.08;101467.78;5098188;27;47463;-46
2021/06/11 03:43:01;;;;;;;;;0.67;0.67;;;;;23.23;49.71;101465.09;5099467;27;45757;-47
2021/06/11 03:45:29;;;;;;;;;1.67;1.67;;;;;23.23;50.35;101470.50;5099460;27;45265;-48
2021/06/11 03:47:57;;;;;;;;;1.67;0.67;;;;;23.23;49.84;101462.38;5096133;27;45667;-46
2021/06/11 03:50:25;;;;;;;;;1.00;1.00;;;;;23.22;49.84;101464.22;5095710;27;48225;-48
2021/06/11 03:52:53;;;;;;;;;1.00;1.00;;;;;23.24;50.47;101466.81;5098942;27;45652;-48
2021/06/11 03:55:22;;;;;;;;;1.00;1.00;;;;;23.25;50.57;101463.16;5105814;27;45595;-47
2021/06/11 03:57:53;;;;;;;;;3.33;3.33;;;;;23.24;50.25;101472.25;5117647;27;45541;-46
2021/06/11 04:00:21;;;;;;;;;3.00;3.00;;;;;23.22;50.08;101477.75;5118733;27;48206;-47
2021/06/11 04:02:48;;;;;;;;;2.00;2.00;;;;;23.21;50.35;101481.44;5100811;27;45419;-46
2021/06/11 04:05:14;;;;;;;;;2.00;2.00;;;;;23.20;50.26;101477.00;5099375;27;45261;-51
2021/06/11 04:07:58;;;;;;;;;1.33;1.33;;;;;23.20;50.21;101477.00;5093531;27;45411;-47
2021/06/11 04:10:39;;;;;;;;;2.00;1.00;;;;;23.14;50.22;101467.41;5089547;27;48209;-48
2021/06/11 04:13:16;;;;;;;;;1.75;1.75;;;;;23.05;50.28;101462.56;5093279;27;45365;-47
2021/06/11 04:15:42;;;;;;;;;2.00;2.00;;;;;23.02;50.12;101473.59;5098493;27;45654;-46
2021/06/11 04:18:15;;;;;;;;;1.67;1.67;;;;;23.03;50.29;101469.91;5099359;27;45415;-45
2021/06/11 04:20:44;;;;;;;;;1.67;1.00;;;;;23.03;50.55;101471.75;5094705;27;48096;-46
2021/06/11 04:23:11;;;;;;;;;3.00;2.00;;;;;23.01;50.65;101471.84;5098929;27;45416;-45
2021/06/11 04:25:39;;;;;;;;;0.67;0.67;;;;;23.02;50.81;101472.72;5098648;27;45709;-48
2021/06/11 04:28:07;;;;;;;;;1.00;1.00;;;;;23.03;50.52;101474.47;5099180;27;45776;-47
2021/06/11 04:30:33;;;;;;;;;1.00;1.00;;;;;23.01;50.75;101471.84;5093931;27;46082;-50
2021/06/11 04:32:59;;;;;;;;;2.00;2.00;;;;;23.00;50.78;101475.53;5090932;27;45461;-50
2021/06/11 04:35:26;;;;;;;;;2.00;2.00;;;;;23.01;50.95;101466.44;5098938;27;45288;-52
2021/06/11 04:37:52;;;;;;;;;1.00;1.00;;;;;23.03;50.50;101477.16;5096990;27;45217;-46
2021/06/11 04:40:19;;;;;;;;;2.00;2.00;;;;;22.99;50.31;101481.88;5121721;27;47199;-46
2021/06/11 04:42:44;;;;;;;;;1.33;1.33;;;;;22.92;50.84;101480.53;5094384;27;45434;-47
2021/06/11 04:45:10;;;;;;;;;2.00;2.00;;;;;22.90;50.64;101480.63;5098459;27;45527;-47
2021/06/11 04:47:36;;;;;;;;;1.33;1.00;;;;;22.89;50.71;101478.91;5080361;27;45616;-47
2021/06/11 04:50:03;;;;;;;;;2.00;2.00;;;;;22.88;50.81;101477.16;5081944;27;48391;-47
2021/06/11 04:52:29;;;;;;;;;3.00;2.00;;;;;22.86;50.77;101475.47;5093934;27;45333;-46
2021/06/11 04:54:54;;;;;;;;;2.00;1.00;;;;;22.84;50.77;101481.00;5098527;27;45298;-46
2021/06/11 04:57:20;;;;;;;;;2.00;2.00;;;;;22.84;50.88;101478.28;5098507;27;46334;-48
2021/06/11 04:59:45;;;;;;;;;1.00;1.00;;;;;22.85;51.40;101471.91;5098315;27;48192;-50
2021/06/11 05:02:11;;;;;;;;;1.00;1.00;;;;;22.88;50.76;101473.56;5085286;27;45834;-47
2021/06/11 05:04:36;;;;;;;;;3.00;3.00;;;;;22.85;51.41;101480.03;5087587;27;45290;-46
2021/06/11 05:07:03;;;;;;;;;2.67;1.67;;;;;22.82;50.95;101482.88;5085531;27;45709;-48
2021/06/11 05:09:28;;;;;;;;;2.00;2.00;;;;;22.80;51.33;101487.53;5093458;27;47754;-50
2021/06/11 05:11:54;;;;;;;;;2.00;1.67;;;;;22.81;51.20;101482.97;5083131;27;45655;-49
2021/06/11 05:14:20;;;;;;;;;1.67;1.67;;;;;22.83;51.31;101483.78;5096686;27;45387;-49
2021/06/11 05:16:46;;;;;;;;;2.67;2.00;;;;;22.85;51.76;101488.13;5098095;27;45423;-46
2021/06/11 05:19:11;;;;;;;;;1.67;1.67;;;;;22.88;51.48;101493.38;5093063;27;45352;-51
2021/06/11 05:21:37;;;;;;;;;1.67;1.67;;;;;22.92;51.03;101494.06;5087692;27;45662;-46
2021/06/11 05:24:02;;;;;;;;;2.00;1.00;;;;;22.94;50.98;101493.97;5097937;27;45601;-49
2021/06/11 05:26:28;;;;;;;;;3.00;3.00;;;;;22.97;51.02;101491.06;5097341;27;45524;-46
2021/06/11 05:28:53;;;;;;;;;2.67;2.67;;;;;23.00;50.74;101501.72;5092773;27;46499;-46
2021/06/11 05:31:19;;;;;;;;;3.00;3.00;;;;;23.00;50.96;101499.03;5097769;27;45857;-46
2021/06/11 05:33:44;;;;;;;;;3.00;3.00;;;;;22.99;51.16;101505.38;5097167;27;45397;-46
2021/06/11 05:36:10;;;;;;;;;2.00;2.00;;;;;23.01;50.94;101507.06;5098305;27;45740;-47
2021/06/11 05:38:36;;;;;;;;;2.00;2.00;;;;;23.05;51.04;101505.88;5114988;27;47962;-47
2021/06/11 05:41:02;;;;;;;;;2.67;2.67;;;;;23.09;50.75;101510.13;5100581;27;45522;-46
2021/06/11 05:43:28;;;;;;;;;4.33;4.00;;;;;23.11;50.79;101519.03;5101497;27;45450;-44
2021/06/11 05:45:54;;;;;;;;;2.33;2.00;;;;;23.13;51.43;101519.84;5096850;27;45495;-47
2021/06/11 05:48:19;;;;;;;;;2.33;2.33;;;;;23.17;51.16;101515.97;5093126;27;47324;-46
2021/06/11 05:50:45;;;;;;;;;3.50;3.50;;;;;23.22;50.87;101518.38;5097467;27;45321;-48
2021/06/11 05:53:10;;;;;;;;;3.75;3.75;;;;;23.27;51.09;101527.09;5100036;27;45371;-44
2021/06/11 05:55:37;;;;;;;;;3.00;3.00;;;;;23.30;50.81;101526.03;5101170;27;45300;-47
2021/06/11 05:58:02;;;;;;;;;3.50;3.00;;;;;23.30;50.79;101521.50;5099299;27;47167;-46
2021/06/11 06:00:28;;;;;;;;;3.00;3.00;;;;;23.35;50.62;101522.06;5099948;27;45404;-46
2021/06/11 06:02:54;;;;;;;;;3.00;3.00;;;;;23.37;50.52;101527.38;5096114;27;45631;-47
2021/06/11 06:05:19;;;;;;;;;5.00;5.00;;;;;23.37;50.67;101527.38;5094215;27;45746;-48
2021/06/11 06:07:45;;;;;;;;;5.00;5.00;;;;;23.40;50.58;101533.50;5092091;27;46961;-49
2021/06/11 06:10:12;;;;;;;;;5.00;3.00;;;;;23.40;50.86;101528.09;5090836;27;45870;-50
2021/06/11 06:12:38;;;;;;;;;5.25;4.25;;;;;23.43;50.64;101524.31;5095382;27;45471;-46
2021/06/11 06:15:05;;;;;;;;;7.75;5.00;;;;;23.43;50.70;101525.19;5104425;27;45545;-45
2021/06/11 06:17:34;;;;;;;;;5.67;4.67;;;;;23.47;50.39;101531.25;5126323;27;47058;-47
2021/06/11 06:20:05;;;;;;;;;7.00;5.25;;;;;23.52;50.25;101536.41;5103453;27;45746;-49
2021/06/11 06:22:31;;;;;;;;;5.25;5.25;;;;;23.54;50.55;101532.63;5109127;27;45341;-48
2021/06/11 06:24:56;;;;;;;;;5.50;5.50;;;;;23.56;50.71;101543.38;5107667;27;45781;-47
2021/06/11 06:27:22;;;;;;;;;8.50;7.25;;;;;23.58;50.57;101546.88;5113776;27;47288;-48
2021/06/11 06:29:47;;;;;;;;;8.75;7.25;;;;;23.58;50.50;101541.47;5111586;27;45318;-44
2021/06/11 06:32:13;;;;;;;;;6.00;6.00;;;;;23.58;50.47;101547.75;5113272;27;45868;-49
2021/06/11 06:34:38;;;;;;;;;6.25;6.25;;;;;23.59;50.55;101543.19;5109353;27;45832;-47
2021/06/11 06:37:06;;;;;;;;;7.25;6.50;;;;;23.58;50.49;101545.03;5108661;27;47852;-48
2021/06/11 06:39:32;;;;;;;;;9.25;9.00;;;;;23.59;50.20;101538.66;5118023;27;45815;-46
2021/06/11 06:41:58;;;;;;;;;9.25;6.50;;;;;23.58;50.66;101533.34;5111416;27;45471;-44
2021/06/11 06:44:24;;;;;;;;;7.00;7.00;;;;;23.55;50.31;101544.34;5106569;27;45723;-45
2021/06/11 06:46:49;;;;;;;;;5.50;5.50;;;;;23.53;50.48;101540.88;5107363;27;46047;-45
2021/06/11 06:49:14;;;;;;;;;4.75;4.75;;;;;23.53;50.69;101539.03;5104937;27;45442;-47
2021/06/11 06:51:40;;;;;;;;;3.33;3.33;;;;;23.56;50.39;101546.09;5109694;27;47179;-51
2021/06/11 06:54:06;;;;;;;;;3.33;3.33;;;;;23.56;50.13;101548.78;5107816;27;45446;-46
2021/06/11 06:56:31;;;;;;;;;4.00;3.00;;;;;23.57;50.27;101551.41;5111685;27;45466;-44
2021/06/11 06:58:57;;;;;;;;;3.67;3.67;;;;;23.58;50.12;101547.75;5105073;27;46926;-44
2021/06/11 07:01:25;;;;;;;;;3.67;3.67;;;;;23.57;50.55;101547.81;5114737;27;45396;-44
2021/06/11 07:03:57;;;;;;;;;3.33;3.33;;;;;23.56;50.27;101541.53;5105806;27;45393;-48
2021/06/11 07:06:23;;;;;;;;;6.33;6.33;;;;;23.58;50.24;101546.88;5101939;27;47995;-54
2021/06/11 07:08:49;;;;;;;;;4.00;4.00;;;;;23.56;50.27;101540.66;5099163;27;45966;-47
2021/06/11 07:11:15;;;;;;;;;4.67;4.00;;;;;23.56;50.38;101544.25;5111443;27;45822;-47
2021/06/11 07:13:40;;;;;;;;;3.00;3.00;;;;;23.58;50.61;101545.03;5105260;27;46507;-47
2021/06/11 07:16:06;;;;;;;;;3.00;3.00;;;;;23.61;50.57;101549.38;5104361;27;48097;-50
2021/06/11 07:18:31;;;;;;;;;2.67;2.00;;;;;23.62;50.35;101548.41;5106075;27;45488;-47
2021/06/11 07:20:57;;;;;;;;;3.00;3.00;;;;;23.64;50.52;101541.09;5119045;27;45381;-46
2021/06/11 07:23:22;;;;;;;;;1.33;1.33;;;;;23.63;50.20;101553.78;5119125;27;45327;-48
2021/06/11 07:25:48;;;;;;;;;3.00;2.67;;;;;23.64;50.33;101547.38;5120098;27;46463;-46
2021/06/11 07:28:13;;;;;;;;;1.67;1.67;;;;;23.66;50.20;101550.00;5104716;27;45755;-49
2021/06/11 07:30:39;;;;;;;;;3.00;2.00;;;;;23.66;50.35;101553.56;5100910;27;45464;-47
2021/06/11 07:33:04;;;;;;;;;2.00;2.00;;;;;23.67;50.56;101546.31;5100248;27;45450;-47
2021/06/11 07:35:30;;;;;;;;;1.67;1.67;;;;;23.66;50.48;101540.03;5102521;27;47317;-47
2021/06/11 07:37:56;;;;;;;;;2.33;2.33;;;;;23.67;49.98;101538.19;5117305;27;45778;-47
2021/06/11 07:40:21;;;;;;;;;2.67;2.67;;;;;23.68;50.39;101546.22;5100490;27;45406;-48
2021/06/11 07:42:47;;;;;;;;;1.00;1.00;;;;;23.69;50.38;101550.66;5104135;27;45819;-49
2021/06/11 07:45:12;;;;;;;;;3.33;3.33;;;;;23.71;50.28;101547.84;5103643;27;45470;-46
2021/06/11 07:47:38;;;;;;;;;1.67;1.67;;;;;23.73;50.22;101548.63;5101929;27;46192;-54
2021/06/11 07:50:06;;;;;;;;;2.67;1.67;;;;;23.74;49.99;101553.06;5116675;27;45599;-49
2021/06/11 07:52:34;;;;;;;;;1.67;1.67;;;;;23.75;50.36;101554.81;5102480;27;45977;-46
2021/06/11 07:55:00;;;;;;;;;3.00;3.00;;;;;23.78;50.33;101555.50;5104561;27;45466;-49
2021/06/11 07:57:26;;;;;;;;;3.00;1.67;;;;;23.81;50.33;101557.16;5112386;27;45318;-48
2021/06/11 07:59:51;;;;;;;;;1.00;1.00;;;;;23.84;50.09;101561.50;5108905;27;46060;-46
2021/06/11 08:02:17;;;;;;;;;2.67;2.67;;;;;23.83;49.95;101552.50;5118249;27;45561;-45
2021/06/11 08:04:42;;;;;;;;;3.00;2.00;;;;;23.82;50.00;101555.31;5126314;27;47922;-45
2021/06/11 08:07:08;;;;;;;;;1.67;1.67;;;;;23.82;50.09;101558.88;5105579;27;45330;-50
2021/06/11 08:09:34;;;;;;;;;2.67;2.67;;;;;23.85;50.47;101557.81;5106370;27;45428;-46
2021/06/11 08:12:00;;;;;;;;;2.00;2.00;;;;;23.89;50.35;101556.66;5105963;27;45856;-47
2021/06/11 08:14:25;;;;;;;;;2.00;2.00;;;;;23.92;49.93;101562.75;5125485;27;48323;-44
2021/06/11 08:16:51;;;;;;;;;1.67;1.67;;;;;23.94;50.07;101565.38;5116995;27;45317;-47
2021/06/11 08:19:16;;;;;;;;;2.33;2.33;;;;;23.94;50.04;101565.38;5111803;27;45457;-48
2021/06/11 08:21:42;;;;;;;;;3.67;3.67;;;;;23.94;49.98;101574.38;5115029;27;45609;-48
2021/06/11 08:24:08;;;;;;;;;7.25;7.25;;;;;23.93;49.80;101569.91;5106642;27;47103;-51
2021/06/11 08:26:33;;;;;;;;;3.00;3.00;;;;;23.93;49.86;101567.19;5098324;27;46139;-49
2021/06/11 08:28:59;;;;;;;;;3.67;3.67;;;;;23.95;49.99;101569.81;5115198;27;45582;-47
2021/06/11 08:31:25;;;;;;;;;3.67;3.67;;;;;23.95;49.38;101573.41;5098753;27;45649;-46
2021/06/11 08:33:51;;;;;;;;;4.00;4.00;;;;;23.93;49.79;101569.03;5098346;27;47357;-48
2021/06/11 08:36:16;;;;;;;;;2.00;2.00;;;;;23.93;50.11;101567.19;5103512;27;45434;-50
2021/06/11 08:38:42;;;;;;;;;3.33;3.00;;;;;23.98;50.03;101577.75;5104970;27;45614;-49
2021/06/11 08:41:09;;;;;;;;;3.33;3.33;;;;;23.99;49.96;101572.22;5107967;27;45483;-48
2021/06/11 08:43:35;;;;;;;;;3.33;3.00;;;;;24.04;49.94;101577.38;5104913;27;47428;-47
2021/06/11 08:46:01;;;;;;;;;3.67;2.33;;;;;24.07;49.80;101578.03;5100050;27;45624;-51
2021/06/11 08:48:27;;;;;;;;;2.33;2.00;;;;;24.11;49.77;101577.81;5111900;27;45415;-51
2021/06/11 08:50:53;;;;;;;;;4.33;4.33;;;;;24.13;49.55;101581.31;5105039;27;45344;-47
2021/06/11 08:53:18;;;;;;;;;4.00;2.67;;;;;24.16;49.40;101573.88;5110107;27;45454;-48
2021/06/11 08:55:46;;;;;;;;;2.33;2.33;;;;;24.19;49.64;101581.78;5100720;27;45426;-46
2021/06/11 08:58:12;;;;;;;;;2.00;2.00;;;;;24.23;49.65;101569.75;5104749;27;45617;-46
2021/06/11 09:00:38;;;;;;;;;4.00;2.00;;;;;24.24;49.38;101566.06;5102952;27;45780;-45
2021/06/11 09:03:12;;;;;;;;;4.00;4.00;;;;;24.25;49.44;101562.38;5101177;27;47236;-50
2021/06/11 09:05:40;;;;;;;;;4.00;4.00;;;;;24.28;49.25;101564.06;5108508;27;45824;-45
2021/06/11 09:08:19;;;;;;;;;3.00;3.00;;;;;24.29;49.15;101566.66;5103809;27;45935;-44
2021/06/11 09:10:46;;;;;;;;;4.33;4.33;;;;;24.30;49.18;101559.44;5107658;27;45407;-47
2021/06/11 09:13:28;;;;;;;;;4.00;4.00;;;;;24.29;49.26;101561.25;5110327;27;45585;-46
2021/06/11 09:16:26;;;;;;;;;3.00;2.67;;;;;24.30;49.38;101565.72;5104243;27;45900;-47
2021/06/11 09:18:56;;;;;;;;;4.67;4.67;;;;;24.34;49.55;101558.25;5101447;27;45343;-49
2021/06/11 09:21:34;;;;;;;;;3.75;3.75;;;;;24.40;49.29;101557.00;5108546;27;45536;-44
2021/06/11 09:24:17;;;;;;;;;4.00;4.00;;;;;24.41;49.18;101559.59;5101216;27;48196;-50
2021/06/11 09:27:02;;;;;;;;;6.50;4.25;;;;;24.45;48.97;101549.41;5110160;27;45668;-47
2021/06/11 09:29:31;;;;;;;;;2.25;2.25;;;;;24.48;49.14;101549.19;5106100;27;45512;-47
2021/06/11 09:32:26;;;;;;;;;2.00;2.00;;;;;24.51;48.97;101551.69;5117420;27;45448;-47
2021/06/11 09:35:05;;;;;;;;;4.25;3.00;;;;;24.53;49.21;101547.94;5117511;27;47747;-47
2021/06/11 09:37:37;;;;;;;;;3.25;3.25;;;;;24.57;49.14;101554.00;5112718;27;46051;-45
2021/06/11 09:40:10;;;;;;;;;3.00;3.00;;;;;24.59;49.17;101552.06;5119373;27;45617;-48
2021/06/11 09:42:38;;;;;;;;;3.75;3.75;;;;;24.61;49.09;101541.97;5108575;27;45425;-48
2021/06/11 09:45:07;;;;;;;;;4.25;3.25;;;;;24.66;49.52;101537.13;5114245;27;47721;-48
2021/06/11 09:47:37;;;;;;;;;5.50;4.50;;;;;24.72;49.32;101535.81;5115815;27;45522;-46
2021/06/11 09:50:04;;;;;;;;;4.00;3.50;;;;;24.76;48.98;101540.03;5105005;27;45439;-46
2021/06/11 09:52:34;;;;;;;;;3.50;3.00;;;;;24.78;48.69;101538.13;5108707;27;45605;-48
2021/06/11 09:55:04;;;;;;;;;3.50;2.00;;;;;24.81;48.36;101533.34;5101243;27;45630;-49
2021/06/11 09:57:34;;;;;;;;;3.33;2.33;;;;;24.84;48.37;101526.84;5117851;27;46093;-47
2021/06/11 10:00:00;;;;;;;;;4.75;4.75;;;;;24.85;48.41;101540.28;5102381;27;45781;-48
2021/06/11 10:02:29;;;;;;;;;4.00;4.00;;;;;24.88;47.74;101531.06;5105405;27;45376;-45
2021/06/11 10:04:55;;;;;;;;;6.75;4.00;;;;;24.91;47.50;101536.31;5119311;27;48838;-49
2021/06/11 10:07:21;;;;;;;;;5.25;5.25;;;;;24.94;47.51;101533.38;5106102;27;45418;-50
2021/06/11 10:09:47;;;;;;;;;3.75;3.75;;;;;24.93;47.79;101537.94;5118764;27;45453;-44
2021/06/11 10:12:12;;;;;;;;;4.50;3.50;;;;;24.95;47.88;101535.97;5117970;27;45847;-46
2021/06/11 10:14:39;;;;;;;;;5.00;4.75;;;;;24.98;47.49;101536.75;5108215;27;48409;-47
2021/06/11 10:17:06;;;;;;;;;5.75;5.00;;;;;25.00;47.38;101538.38;5108077;27;45675;-47
2021/06/11 10:19:31;;;;;;;;;4.50;4.50;;;;;25.03;47.10;101532.78;5104059;27;45257;-45
2021/06/11 10:21:57;;;;;;;;;6.00;4.75;;;;;25.05;47.28;101533.53;5112365;27;45472;-43
2021/06/11 10:24:23;;;;;;;;;3.00;3.00;;;;;25.09;47.68;101535.06;5116524;27;48210;-45
2021/06/11 10:26:50;;;;;;;;;4.00;4.00;;;;;25.12;47.62;101531.25;5109793;27;45462;-46
2021/06/11 10:29:18;;;;;;;;;4.25;3.75;;;;;25.14;47.29;101532.88;5106690;27;45490;-44
2021/06/11 10:31:45;;;;;;;;;4.00;3.00;;;;;25.17;47.27;101531.81;5115544;27;45324;-45
2021/06/11 10:34:11;;;;;;;;;4.75;4.75;;;;;25.18;47.35;101520.84;5106493;27;48447;-46
2021/06/11 10:36:42;;;;;;;;;5.67;4.33;;;;;25.22;46.99;101521.47;5100656;27;45464;-49
2021/06/11 10:39:07;;;;;;;;;4.50;4.50;;;;;25.24;47.56;101520.41;5104762;27;45365;-44
2021/06/11 10:42:01;;;;;;;;;5.00;5.00;;;;;25.29;47.44;101522.81;5101497;27;46214;-45
2021/06/11 10:44:50;;;;;;;;;4.33;4.33;;;;;25.33;47.48;101526.16;5114170;27;47324;-47
2021/06/11 10:47:15;;;;;;;;;2.00;2.00;;;;;25.35;47.53;101521.50;5102306;27;45284;-47
2021/06/11 10:50:00;;;;;;;;;4.00;4.00;;;;;25.38;46.95;101527.56;5105562;27;45734;-44
2021/06/11 10:52:36;;;;;;;;;3.67;3.67;;;;;25.41;46.96;101521.94;5105975;27;45628;-44
2021/06/11 10:55:17;;;;;;;;;3.33;3.33;;;;;25.45;46.70;101525.28;5114445;27;45357;-44
2021/06/11 10:58:03;;;;;;;;;4.25;4.25;;;;;25.47;46.44;101520.63;5105204;27;45385;-46
2021/06/11 11:00:33;;;;;;;;;4.50;4.50;;;;;25.50;46.68;101526.69;5103201;27;45445;-46
2021/06/11 11:03:01;;;;;;;;;6.00;6.00;;;;;25.52;46.79;101522.00;5100779;27;45387;-46
2021/06/11 11:05:29;;;;;;;;;7.75;7.00;;;;;25.55;46.21;101506.50;5113003;27;47335;-47
2021/06/11 11:07:55;;;;;;;;;6.50;6.00;;;;;25.58;46.47;101514.41;5109465;27;45307;-45
2021/06/11 11:10:42;;;;;;;;;7.50;6.50;;;;;25.61;46.60;101506.91;5108218;27;45447;-45
2021/06/11 11:13:12;;;;;;;;;5.75;4.75;;;;;25.63;46.65;101495.91;5105813;27;45373;-44
2021/06/11 11:15:39;;;;;;;;;5.00;5.00;;;;;25.66;46.22;101498.41;5111308;27;45328;-45
2021/06/11 11:18:07;;;;;;;;;4.75;4.75;;;;;25.68;45.93;101505.50;5100857;27;45269;-50
2021/06/11 11:20:34;;;;;;;;;7.25;4.50;;;;;25.70;46.36;101500.84;5116825;27;45428;-45
2021/06/11 11:23:04;;;;;;;;;4.50;4.50;;;;;25.72;46.11;101500.72;5111109;27;45392;-45
2021/06/11 11:25:30;;;;;;;;;5.75;5.50;;;;;25.74;46.06;101499.63;5113789;27;47249;-45
2021/06/11 11:27:58;;;;;;;;;6.00;6.00;;;;;25.76;46.14;101508.53;5110173;27;45392;-47